createdAt,value
2022-07-28T00:01:16.471Z,19.15
2022-07-28T00:03:49.083Z,19.13
2022-07-28T00:06:17.776Z,19.12
2022-07-28T00:08:47.126Z,19.09
2022-07-28T00:11:15.265Z,19.04
2022-07-28T00:13:43.369Z,19.00
2022-07-28T00:16:11.521Z,18.98
2022-07-28T00:18:39.649Z,18.95
2022-07-28T00:21:07.854Z,18.90
2022-07-28T00:23:39.575Z,18.87
2022-07-28T00:26:10.035Z,18.85
2022-07-28T00:28:38.123Z,18.84
2022-07-28T00:31:08.482Z,18.79
2022-07-28T00:33:40.147Z,18.73
2022-07-28T00:36:10.267Z,18.64
2022-07-28T00:38:40.891Z,18.62
2022-07-28T00:41:13.541Z,18.57
2022-07-28T00:43:42.925Z,18.53
2022-07-28T00:46:11.072Z,18.45
2022-07-28T00:48:40.031Z,18.44
2022-07-28T00:51:09.394Z,18.44
2022-07-28T00:53:37.754Z,18.44
2022-07-28T00:56:07.083Z,18.40
2022-07-28T00:58:37.274Z,18.38
2022-07-28T01:01:06.068Z,18.38
2022-07-28T01:03:35.079Z,18.32
2022-07-28T01:06:07.739Z,18.31
2022-07-28T01:08:44.863Z,18.30
2022-07-28T01:11:18.198Z,18.28
2022-07-28T01:13:51.868Z,18.20
2022-07-28T01:16:22.645Z,18.17
2022-07-28T01:18:57.917Z,18.14
2022-07-28T01:21:28.034Z,18.10
2022-07-28T01:24:11.211Z,18.09
2022-07-28T01:26:49.685Z,18.08
2022-07-28T01:29:23.694Z,18.10
2022-07-28T01:31:58.139Z,18.07
2022-07-28T01:34:36.163Z,17.99
2022-07-28T01:37:07.414Z,18.02
2022-07-28T01:39:37.567Z,18.02
2022-07-28T01:42:07.249Z,17.94
2022-07-28T01:44:39.008Z,17.94
2022-07-28T01:47:09.284Z,17.93
2022-07-28T01:49:38.188Z,17.88
2022-07-28T01:52:08.159Z,17.88
2022-07-28T01:54:39.008Z,17.84
2022-07-28T01:57:10.911Z,17.85
2022-07-28T01:59:39.898Z,17.83
2022-07-28T02:02:10.411Z,17.83
2022-07-28T02:04:40.982Z,17.82
2022-07-28T02:07:10.153Z,17.75
2022-07-28T02:09:38.668Z,17.69
2022-07-28T02:12:07.474Z,17.71
2022-07-28T02:14:36.948Z,17.65
2022-07-28T02:17:08.837Z,17.57
2022-07-28T02:19:39.335Z,17.55
2022-07-28T02:22:08.265Z,17.58
2022-07-28T02:24:36.954Z,17.52
2022-07-28T02:27:08.071Z,17.48
2022-07-28T02:29:51.460Z,17.48
2022-07-28T02:32:24.114Z,17.43
2022-07-28T02:35:00.279Z,17.47
2022-07-28T02:37:33.729Z,17.46
2022-07-28T02:40:02.766Z,17.39
2022-07-28T02:42:33.534Z,17.40
2022-07-28T02:45:04.542Z,17.39
2022-07-28T02:47:34.534Z,17.44
2022-07-28T02:50:05.826Z,17.46
2022-07-28T02:52:34.691Z,17.46
2022-07-28T02:55:04.017Z,17.47
2022-07-28T02:57:32.404Z,17.47
2022-07-28T03:00:00.634Z,17.45
2022-07-28T03:02:30.849Z,17.45
2022-07-28T03:05:01.877Z,17.40
2022-07-28T03:07:33.386Z,17.38
2022-07-28T03:10:01.815Z,17.30
2022-07-28T03:12:30.182Z,17.36
2022-07-28T03:14:58.292Z,17.29
2022-07-28T03:17:26.382Z,17.30
2022-07-28T03:19:54.503Z,17.29
2022-07-28T03:22:22.562Z,17.34
2022-07-28T03:24:53.258Z,17.30
2022-07-28T03:27:23.226Z,17.28
2022-07-28T03:29:54.740Z,17.23
2022-07-28T03:32:24.132Z,17.18
2022-07-28T03:34:52.521Z,17.20
2022-07-28T03:37:26.526Z,17.15
2022-07-28T03:39:58.426Z,17.11
2022-07-28T03:42:27.624Z,17.08
2022-07-28T03:44:56.166Z,17.04
2022-07-28T03:47:25.161Z,17.00
2022-07-28T03:49:53.213Z,16.93
2022-07-28T03:52:21.266Z,16.92
2022-07-28T03:54:49.398Z,16.85
2022-07-28T03:57:18.876Z,16.86
2022-07-28T03:59:46.985Z,16.76
2022-07-28T04:04:43.285Z,16.80
2022-07-28T04:07:11.782Z,16.78
2022-07-28T04:09:39.881Z,16.80
2022-07-28T04:12:08.771Z,16.80
2022-07-28T04:14:38.138Z,16.78
2022-07-28T04:17:06.332Z,16.77
2022-07-28T04:19:34.485Z,16.79
2022-07-28T04:22:02.599Z,16.78
2022-07-28T04:24:30.686Z,16.76
2022-07-28T04:26:58.993Z,16.76
2022-07-28T04:29:27.649Z,16.72
2022-07-28T04:31:57.275Z,16.68
2022-07-28T04:34:25.382Z,16.67
2022-07-28T04:36:53.390Z,16.68
2022-07-28T04:39:21.618Z,16.66
2022-07-28T04:41:50.941Z,16.68
2022-07-28T04:44:20.097Z,16.70
2022-07-28T04:46:48.121Z,16.74
2022-07-28T04:49:17.538Z,16.73
2022-07-28T04:51:49.388Z,16.74
2022-07-28T04:54:19.213Z,16.72
2022-07-28T04:56:49.955Z,16.73
2022-07-28T04:59:18.983Z,16.69
2022-07-28T05:01:48.976Z,16.72
2022-07-28T05:04:19.037Z,16.74
2022-07-28T05:06:47.409Z,16.80
2022-07-28T05:09:15.472Z,16.74
2022-07-28T05:11:43.632Z,16.80
2022-07-28T05:14:12.645Z,16.82
2022-07-28T05:16:41.625Z,16.83
2022-07-28T05:19:10.076Z,16.82
2022-07-28T05:21:39.499Z,16.86
2022-07-28T05:24:08.681Z,16.87
2022-07-28T05:26:36.927Z,16.87
2022-07-28T05:29:05.078Z,16.92
2022-07-28T05:31:33.192Z,16.89
2022-07-28T05:34:01.611Z,16.94
2022-07-28T05:36:29.928Z,16.99
2022-07-28T05:38:59.416Z,17.02
2022-07-28T05:41:28.116Z,17.04
2022-07-28T05:43:57.536Z,17.09
2022-07-28T05:46:25.834Z,17.14
2022-07-28T05:48:53.919Z,17.11
2022-07-28T05:51:22.016Z,17.13
2022-07-28T05:53:50.051Z,17.21
2022-07-28T05:56:19.427Z,17.28
2022-07-28T05:58:47.458Z,17.32
2022-07-28T06:01:15.579Z,17.36
2022-07-28T06:03:43.680Z,17.40
2022-07-28T06:06:16.051Z,17.43
2022-07-28T06:08:46.084Z,17.46
2022-07-28T06:11:22.331Z,17.52
2022-07-28T06:13:53.304Z,17.59
2022-07-28T06:16:23.073Z,17.64
2022-07-28T06:18:52.645Z,17.68
2022-07-28T06:21:21.039Z,17.74
2022-07-28T06:23:49.147Z,17.78
2022-07-28T06:26:17.554Z,17.81
2022-07-28T06:28:46.049Z,17.82
2022-07-28T06:31:16.034Z,17.87
2022-07-28T06:33:44.265Z,17.90
2022-07-28T06:36:13.005Z,17.93
2022-07-28T06:38:41.192Z,17.99
2022-07-28T06:41:09.348Z,18.01
2022-07-28T06:43:39.201Z,18.06
2022-07-28T06:46:07.708Z,18.12
2022-07-28T06:48:39.670Z,18.18
2022-07-28T06:51:08.272Z,18.24
2022-07-28T06:53:36.703Z,18.26
2022-07-28T06:56:06.605Z,18.33
2022-07-28T06:58:35.947Z,18.38
2022-07-28T07:01:08.032Z,18.42
2022-07-28T07:03:37.902Z,18.46
2022-07-28T07:06:06.118Z,18.53
2022-07-28T07:08:34.892Z,18.59
2022-07-28T07:11:20.764Z,18.65
2022-07-28T07:13:49.375Z,18.71
2022-07-28T07:16:18.020Z,18.80
2022-07-28T07:18:48.382Z,18.85
2022-07-28T07:21:16.736Z,18.91
2022-07-28T07:23:44.885Z,18.97
2022-07-28T07:26:13.470Z,19.01
2022-07-28T07:28:42.520Z,19.12
2022-07-28T07:31:11.153Z,19.13
2022-07-28T07:33:39.604Z,19.23
2022-07-28T07:36:15.330Z,19.26
2022-07-28T07:38:45.567Z,19.32
2022-07-28T07:41:14.452Z,19.35
2022-07-28T07:43:47.338Z,19.40
2022-07-28T07:46:16.413Z,19.47
2022-07-28T07:48:44.774Z,19.51
2022-07-28T07:51:15.728Z,19.55
2022-07-28T07:53:46.470Z,19.64
2022-07-28T07:56:15.884Z,19.76
2022-07-28T07:58:44.083Z,19.79
2022-07-28T08:01:19.117Z,19.84
2022-07-28T08:03:50.014Z,19.89
2022-07-28T08:06:26.624Z,19.91
2022-07-28T08:08:56.455Z,19.93
2022-07-28T08:11:30.858Z,20.05
2022-07-28T08:13:59.112Z,20.11
2022-07-28T08:16:27.492Z,20.21
2022-07-28T08:18:59.223Z,20.28
2022-07-28T08:21:29.375Z,20.30
2022-07-28T08:23:58.069Z,20.34
2022-07-28T08:26:28.846Z,20.40
2022-07-28T08:28:56.986Z,20.48
2022-07-28T08:31:25.228Z,20.54
2022-07-28T08:33:56.545Z,20.56
2022-07-28T08:36:25.006Z,20.62
2022-07-28T08:38:54.820Z,20.74
2022-07-28T08:41:33.517Z,20.82
2022-07-28T08:44:03.967Z,20.87
2022-07-28T08:46:36.188Z,20.94
2022-07-28T08:49:09.491Z,20.95
2022-07-28T08:51:38.982Z,21.02
2022-07-28T08:54:10.771Z,21.11
2022-07-28T08:56:47.970Z,21.15
2022-07-28T08:59:16.792Z,21.18
2022-07-28T09:01:45.203Z,21.26
2022-07-28T09:04:14.311Z,21.34
2022-07-28T09:06:43.322Z,21.41
2022-07-28T09:09:13.284Z,21.50
2022-07-28T09:11:41.539Z,21.56
2022-07-28T09:14:09.657Z,21.62
2022-07-28T09:16:39.038Z,21.75
2022-07-28T09:19:07.070Z,21.86
2022-07-28T09:21:35.210Z,21.95
2022-07-28T09:24:03.328Z,22.01
2022-07-28T09:26:32.976Z,22.10
2022-07-28T09:29:02.429Z,22.16
2022-07-28T09:31:30.783Z,22.17
2022-07-28T09:34:04.256Z,22.25
2022-07-28T09:36:39.921Z,22.33
2022-07-28T09:39:08.128Z,22.35
2022-07-28T09:41:49.413Z,22.43
2022-07-28T09:44:20.484Z,22.49
2022-07-28T09:46:49.144Z,22.54
2022-07-28T09:49:17.867Z,22.61
2022-07-28T09:52:00.796Z,22.72
2022-07-28T09:54:29.060Z,22.74
2022-07-28T09:56:58.578Z,22.82
2022-07-28T09:59:27.096Z,22.90
2022-07-28T10:02:00.995Z,23.01
2022-07-28T10:04:31.796Z,23.07
2022-07-28T10:07:03.999Z,23.17
2022-07-28T10:09:32.470Z,23.16
2022-07-28T10:15:31.297Z,23.30
2022-07-28T10:17:59.667Z,23.34
2022-07-28T10:20:28.396Z,23.36
2022-07-28T10:23:00.310Z,23.48
2022-07-28T10:25:31.452Z,23.50
2022-07-28T10:28:00.548Z,23.60
2022-07-28T10:30:31.631Z,23.71
2022-07-28T10:33:00.882Z,23.68
2022-07-28T10:35:29.144Z,23.75
2022-07-28T10:38:00.321Z,23.83
2022-07-28T10:40:29.891Z,23.91
2022-07-28T10:42:58.028Z,23.96
2022-07-28T10:45:48.247Z,23.95
2022-07-28T10:48:16.667Z,24.00
2022-07-28T10:50:45.436Z,24.04
2022-07-28T10:53:26.852Z,24.09
2022-07-28T10:55:59.797Z,24.12
2022-07-28T10:58:38.328Z,24.17
2022-07-28T11:01:17.125Z,24.27
2022-07-28T11:03:56.296Z,24.35
2022-07-28T11:06:26.517Z,24.47
2022-07-28T11:08:55.861Z,24.42
2022-07-28T11:11:46.087Z,24.44
2022-07-28T11:14:33.661Z,24.46
2022-07-28T11:17:23.931Z,24.52
2022-07-28T11:20:16.750Z,24.57
2022-07-28T11:22:44.405Z,24.66
2022-07-28T11:25:21.816Z,24.77
2022-07-28T11:28:01.028Z,24.82
2022-07-28T11:30:51.231Z,24.80
2022-07-28T11:33:20.530Z,24.84
2022-07-28T11:35:58.495Z,24.89
2022-07-28T11:38:27.336Z,24.97
2022-07-28T11:40:57.224Z,25.10
2022-07-28T11:43:35.743Z,25.14
2022-07-28T11:46:37.620Z,25.16
2022-07-28T11:49:26.767Z,25.17
2022-07-28T11:52:12.838Z,25.15
2022-07-28T11:54:44.007Z,25.26
2022-07-28T11:57:12.164Z,25.28
2022-07-28T11:59:47.307Z,25.32
2022-07-28T12:02:19.437Z,25.41
2022-07-28T12:04:55.892Z,25.48
2022-07-28T12:07:32.646Z,25.55
2022-07-28T12:10:01.389Z,25.58
2022-07-28T12:12:30.175Z,25.56
2022-07-28T12:15:02.101Z,25.56
2022-07-28T12:17:59.218Z,25.67
2022-07-28T12:20:31.842Z,25.79
2022-07-28T12:23:03.656Z,25.87
2022-07-28T12:25:31.865Z,25.90
2022-07-28T12:28:02.209Z,25.93
2022-07-28T12:30:32.684Z,25.93
2022-07-28T12:33:00.752Z,25.98
2022-07-28T12:35:28.894Z,26.08
2022-07-28T12:37:57.041Z,26.26
2022-07-28T12:40:30.737Z,26.23
2022-07-28T12:42:58.796Z,26.25
2022-07-28T12:45:28.512Z,26.26
2022-07-28T12:47:56.577Z,26.24
2022-07-28T12:50:24.654Z,26.33
2022-07-28T12:53:03.501Z,26.33
2022-07-28T12:55:33.039Z,26.42
2022-07-28T12:58:01.343Z,26.53
2022-07-28T13:00:31.247Z,26.50
2022-07-28T13:03:01.092Z,26.48
2022-07-28T13:05:54.646Z,26.56
2022-07-28T13:08:23.486Z,26.65
2022-07-28T13:10:57.007Z,26.74
2022-07-28T13:13:26.971Z,26.82
2022-07-28T13:16:13.629Z,27.10
2022-07-28T13:18:42.394Z,27.23
2022-07-28T13:21:11.313Z,27.28
2022-07-28T13:23:39.738Z,27.25
2022-07-28T13:26:09.200Z,27.36
2022-07-28T13:28:37.458Z,27.37
2022-07-28T13:31:05.567Z,27.41
2022-07-28T13:33:33.659Z,27.57
2022-07-28T13:36:02.516Z,27.67
2022-07-28T13:38:31.215Z,27.54
2022-07-28T13:40:59.259Z,27.57
2022-07-28T13:43:35.912Z,27.51
2022-07-28T13:46:05.429Z,27.67
2022-07-28T13:48:35.954Z,27.76
2022-07-28T13:51:04.275Z,27.89
2022-07-28T13:53:32.774Z,28.02
2022-07-28T13:56:00.870Z,27.92
2022-07-28T13:58:30.587Z,28.14
2022-07-28T14:00:58.963Z,28.25
2022-07-28T14:03:27.342Z,28.47
2022-07-28T14:05:55.548Z,28.55
2022-07-28T14:08:25.448Z,28.52
2022-07-28T14:10:56.304Z,28.54
2022-07-28T14:13:31.315Z,28.91
2022-07-28T14:16:02.056Z,29.19
2022-07-28T14:18:33.537Z,29.23
2022-07-28T14:21:03.249Z,29.25
2022-07-28T14:23:31.317Z,29.34
2022-07-28T14:26:25.073Z,29.44
2022-07-28T14:28:48.629Z,29.56
2022-07-28T14:31:18.252Z,29.52
2022-07-28T14:33:52.211Z,29.57
2022-07-28T14:36:22.148Z,29.65
2022-07-28T14:38:53.691Z,29.82
2022-07-28T14:41:22.473Z,29.95
2022-07-28T14:43:50.499Z,30.06
2022-07-28T14:46:21.886Z,30.09
2022-07-28T14:48:50.527Z,30.11
2022-07-28T14:51:18.657Z,30.13
2022-07-28T14:53:51.881Z,30.29
2022-07-28T14:56:20.268Z,30.46
2022-07-28T14:58:48.294Z,30.54
2022-07-28T15:01:16.393Z,30.79
2022-07-28T15:03:45.816Z,30.98
2022-07-28T15:06:13.906Z,31.07
2022-07-28T15:08:41.930Z,31.19
2022-07-28T15:11:10.272Z,31.17
2022-07-28T15:13:38.277Z,31.35
2022-07-28T15:16:07.242Z,31.46
2022-07-28T15:18:35.785Z,31.31
2022-07-28T15:21:06.602Z,31.07
2022-07-28T15:23:34.677Z,31.31
2022-07-28T15:26:02.887Z,31.51
2022-07-28T15:28:31.469Z,31.64
2022-07-28T15:30:59.556Z,31.70
2022-07-28T15:33:27.731Z,31.74
2022-07-28T15:36:00.047Z,31.74
2022-07-28T15:38:31.924Z,31.59
2022-07-28T15:41:00.295Z,31.76
2022-07-28T15:43:28.623Z,31.54
2022-07-28T15:45:57.668Z,31.71
2022-07-28T15:48:26.015Z,31.76
2022-07-28T15:50:54.164Z,31.51
2022-07-28T15:53:22.426Z,31.41
2022-07-28T15:55:52.121Z,31.37
2022-07-28T15:58:20.550Z,31.34
2022-07-28T16:00:48.827Z,31.19
2022-07-28T16:03:17.199Z,31.06
2022-07-28T16:05:49.429Z,30.92
2022-07-28T16:08:18.606Z,31.08
2022-07-28T16:10:53.153Z,30.89
2022-07-28T16:13:33.314Z,30.99
2022-07-28T16:16:36.271Z,31.12
2022-07-28T16:19:04.625Z,31.02
2022-07-28T16:21:32.722Z,30.94
2022-07-28T16:24:00.783Z,30.92
2022-07-28T16:26:30.229Z,30.72
2022-07-28T16:28:58.273Z,30.81
2022-07-28T16:31:27.966Z,30.90
2022-07-28T16:33:56.894Z,30.67
2022-07-28T16:36:25.038Z,30.23
2022-07-28T16:38:53.427Z,30.10
2022-07-28T16:41:21.545Z,30.08
2022-07-28T16:43:51.000Z,29.76
2022-07-28T16:46:20.978Z,29.59
2022-07-28T16:48:49.524Z,29.67
2022-07-28T16:51:17.724Z,29.63
2022-07-28T16:53:49.692Z,29.38
2022-07-28T16:56:18.306Z,29.37
2022-07-28T16:58:46.695Z,29.30
2022-07-28T17:01:16.691Z,29.32
2022-07-28T17:03:47.610Z,29.12
2022-07-28T17:06:15.756Z,28.99
2022-07-28T17:08:43.840Z,28.95
2022-07-28T17:11:11.864Z,28.93
2022-07-28T17:13:44.916Z,28.83
2022-07-28T17:16:13.606Z,28.59
2022-07-28T17:18:43.123Z,28.42
2022-07-28T17:21:11.272Z,28.18
2022-07-28T17:23:41.551Z,28.18
2022-07-28T17:27:30.670Z,28.01
2022-07-28T17:28:58.394Z,28.00
2022-07-28T17:31:26.564Z,27.88
2022-07-28T17:33:56.089Z,27.66
2022-07-28T17:36:24.142Z,27.71
2022-07-28T17:38:52.228Z,27.72
2022-07-28T17:41:20.967Z,27.71
2022-07-28T17:44:13.783Z,27.54
2022-07-28T17:46:42.204Z,27.51
2022-07-28T17:49:12.304Z,27.43
2022-07-28T17:51:41.827Z,27.35
2022-07-28T17:54:13.673Z,27.32
2022-07-28T17:56:41.999Z,27.28
2022-07-28T17:59:10.468Z,27.28
2022-07-28T18:01:42.389Z,27.24
2022-07-28T18:04:15.032Z,27.21
2022-07-28T18:06:45.869Z,27.19
2022-07-28T18:09:14.368Z,27.17
2022-07-28T18:11:55.967Z,27.19
2022-07-28T18:14:26.593Z,27.06
2022-07-28T18:16:54.902Z,27.04
2022-07-28T18:19:24.357Z,27.03
2022-07-28T18:21:52.443Z,27.01
2022-07-28T18:24:22.250Z,26.87
2022-07-28T18:26:51.483Z,26.88
2022-07-28T18:29:21.048Z,26.80
2022-07-28T18:31:50.308Z,26.77
2022-07-28T18:34:18.790Z,26.77
2022-07-28T18:36:48.626Z,26.75
2022-07-28T18:39:19.000Z,26.73
2022-07-28T18:41:47.972Z,26.66
2022-07-28T18:44:17.809Z,26.61
2022-07-28T18:46:46.166Z,26.54
2022-07-28T18:49:14.508Z,26.48
2022-07-28T18:51:45.155Z,26.49
2022-07-28T18:54:20.105Z,26.45
2022-07-28T18:56:53.066Z,26.41
2022-07-28T18:59:21.198Z,26.37
2022-07-28T19:01:49.283Z,26.34
2022-07-28T19:04:17.725Z,26.28
2022-07-28T19:06:46.008Z,26.20
2022-07-28T19:09:15.507Z,26.15
2022-07-28T19:11:46.515Z,26.09
2022-07-28T19:14:15.412Z,26.02
2022-07-28T19:16:44.133Z,25.97
2022-07-28T19:19:12.973Z,25.94
2022-07-28T19:21:43.241Z,25.88
2022-07-28T19:24:12.176Z,25.85
2022-07-28T19:26:42.064Z,25.82
2022-07-28T19:29:10.183Z,25.78
2022-07-28T19:31:38.639Z,25.75
2022-07-28T19:34:07.198Z,25.72
2022-07-28T19:36:37.724Z,25.70
2022-07-28T19:39:05.801Z,25.67
2022-07-28T19:41:35.063Z,25.62
2022-07-28T19:44:04.743Z,25.57
2022-07-28T19:46:32.909Z,25.50
2022-07-28T19:49:01.099Z,25.43
2022-07-28T19:51:29.249Z,25.39
2022-07-28T19:53:59.442Z,25.35
2022-07-28T19:56:31.195Z,25.34
2022-07-28T19:58:59.979Z,25.30
2022-07-28T20:01:29.565Z,25.24
2022-07-28T20:04:01.391Z,25.23
2022-07-28T20:06:32.599Z,25.17
2022-07-28T20:09:00.927Z,25.13
2022-07-28T20:11:28.978Z,25.08
2022-07-28T20:13:57.040Z,25.04
2022-07-28T20:16:25.563Z,25.00
2022-07-28T20:18:56.913Z,24.98
2022-07-28T20:21:26.420Z,24.94
2022-07-28T20:23:55.873Z,24.90
2022-07-28T20:26:25.892Z,24.88
2022-07-28T20:28:54.422Z,24.83
2022-07-28T20:31:22.662Z,24.80
2022-07-28T20:33:50.950Z,24.77
2022-07-28T20:36:20.484Z,24.72
2022-07-28T20:38:48.520Z,24.69
2022-07-28T20:41:17.485Z,24.66
2022-07-28T20:43:45.856Z,24.63
2022-07-28T20:46:13.998Z,24.59
2022-07-28T20:48:42.133Z,24.54
2022-07-28T20:51:10.746Z,24.50
2022-07-28T20:53:40.214Z,24.49
2022-07-28T20:56:08.327Z,24.47
2022-07-28T20:58:36.336Z,24.45
2022-07-28T21:01:04.674Z,24.39
2022-07-28T21:03:32.889Z,24.36
2022-07-28T21:06:00.892Z,24.30
2022-07-28T21:08:29.034Z,24.27
2022-07-28T21:10:59.855Z,24.22
2022-07-28T21:13:28.031Z,24.18
2022-07-28T21:15:56.053Z,24.18
2022-07-28T21:18:24.131Z,24.15
2022-07-28T21:20:52.271Z,24.13
2022-07-28T21:23:20.391Z,24.10
2022-07-28T21:25:51.302Z,24.08
2022-07-28T21:28:38.175Z,24.02
2022-07-28T21:31:06.326Z,23.98
2022-07-28T21:33:34.525Z,23.93
2022-07-28T21:36:02.672Z,23.91
2022-07-28T21:38:30.725Z,23.89
2022-07-28T21:40:58.796Z,23.88
2022-07-28T21:43:28.592Z,23.88
2022-07-28T21:45:56.755Z,23.86
2022-07-28T21:48:25.095Z,23.84
2022-07-28T21:50:53.841Z,23.80
2022-07-28T21:53:22.032Z,23.82
2022-07-28T21:55:50.444Z,23.81
2022-07-28T21:58:18.487Z,23.82
2022-07-28T22:00:48.037Z,23.81
2022-07-28T22:03:16.188Z,23.79
2022-07-28T22:05:44.483Z,23.79
2022-07-28T22:08:12.488Z,23.75
2022-07-28T22:10:40.511Z,23.74
2022-07-28T22:13:08.597Z,23.73
2022-07-28T22:15:36.805Z,23.71
2022-07-28T22:18:31.588Z,23.70
2022-07-28T22:20:59.799Z,23.63
2022-07-28T22:23:29.026Z,23.41
2022-07-28T22:25:58.102Z,23.40
2022-07-28T22:28:29.527Z,23.36
2022-07-28T22:30:58.508Z,23.29
2022-07-28T22:33:26.677Z,23.35
2022-07-28T22:35:56.058Z,23.37
2022-07-28T22:38:24.563Z,23.40
2022-07-28T22:40:52.635Z,23.44
2022-07-28T22:43:20.694Z,23.45
2022-07-28T22:45:51.364Z,23.34
2022-07-28T22:48:19.742Z,23.29
2022-07-28T22:50:47.841Z,23.34
2022-07-28T22:53:17.295Z,23.35
2022-07-28T22:55:45.367Z,23.36
2022-07-28T22:58:13.374Z,23.37
2022-07-28T23:00:41.492Z,23.38
2022-07-28T23:03:10.003Z,23.34
2022-07-28T23:05:41.482Z,23.31
2022-07-28T23:08:09.555Z,23.31
2022-07-28T23:10:40.264Z,23.30
2022-07-28T23:16:13.691Z,23.20
2022-07-28T23:18:42.116Z,23.21
2022-07-28T23:21:10.438Z,23.16
2022-07-28T23:23:38.824Z,23.13
2022-07-28T23:26:09.290Z,22.85
2022-07-28T23:28:37.302Z,22.81
2022-07-28T23:31:05.720Z,22.72
2022-07-28T23:33:55.884Z,22.72
2022-07-28T23:36:26.710Z,22.55
2022-07-28T23:38:56.713Z,22.56
2022-07-28T23:41:26.814Z,22.71
2022-07-28T23:43:54.909Z,22.70
2022-07-28T23:46:23.433Z,22.71
2022-07-28T23:48:51.739Z,22.74
2022-07-28T23:51:21.234Z,22.78
2022-07-28T23:53:54.347Z,22.80
2022-07-28T23:56:25.912Z,22.74
2022-07-28T23:58:53.852Z,22.77
